KFLG/FLG METAR and TAF weather

Enter ICAO airport designator
Station Type Date Time Source
KFLG METAR 2019/10/19 06:57 UTC NOAA

KFLG 190657Z AUTO 20003KT 10SM FEW060 FEW120 01/M07 A3009 RMK AO2 SLP134 T00111072 401720006


Station Type Date Time Source
KFLG Decoded METAR 2019/10/19 06:57 UTC NOAA

FLAGSTAFF PULLIAM AIRPORT, AZ, United States (KFLG) 35-08N 111-40W 2134M
Oct 19, 2019 - 02:57 AM EDT / 2019.10.19 0657 UTC
Wind: from the SSW (200 degrees) at 3 MPH (3 KT):0
Visibility: 10 mile(s):0
Sky conditions: mostly clear
Temperature: 34.0 F (1.1 C)
Dew Point: 19.0 F (-7.2 C)
Relative Humidity: 53%
Pressure (altimeter): 30.09 in. Hg (1018 hPa)
ob: KFLG 190657Z AUTO 20003KT 10SM FEW060 FEW120 01/M07 A3009 RMK AO2 SLP134 T00111072 401720006
cycle: 7

Station Type Date Time Source
KFLG TAF 2019/10/19 06:22 UTC NOAA

TAF KFLG 190520Z 1906/2006 VRB03KT P6SM SKC
FM191800 23012G22KT P6SM SKC
FM200200 VRB06KT P6SM FEW200

Example: see airport list